Time;durP1;ratioP1;P1;durP2;ratioP2;P2;SDS_P1;SDS_P2;PMS_P1;PMS_P2;Temp;Humidity;BMP_temperature;BMP_pressure;BME280_temperature;BME280_humidity;BME280_pressure;Samples;Min_cycle;Max_cycle;Signal;HPM_P1;HPM_P2
2022/03/09 00:00:21;;;;;;;9.45;5.00;;;5.00;57.90;;;;;;2076382;28;20124;-86
2022/03/09 00:01:22;;;;;;;7.53;4.47;;;5.00;58.00;;;;;;2080064;28;20030;-86
2022/03/09 00:02:23;;;;;;;8.00;5.00;;;5.00;58.00;;;;;;2077488;28;20046;-85
2022/03/09 00:03:23;;;;;;;8.13;4.63;;;5.00;58.00;;;;;;2064519;28;20062;-85
2022/03/09 00:04:25;;;;;;;7.05;4.50;;;5.00;58.10;;;;;;2066054;28;20133;-85
2022/03/09 00:05:25;;;;;;;7.47;4.28;;;5.00;58.10;;;;;;2073587;28;20014;-85
2022/03/09 00:06:27;;;;;;;7.18;4.55;;;4.90;58.20;;;;;;2080324;28;20057;-85
2022/03/09 00:07:27;;;;;;;6.55;4.03;;;4.90;58.30;;;;;;2079942;28;20097;-85
2022/03/09 00:08:28;;;;;;;6.80;4.40;;;4.90;58.40;;;;;;2079561;28;20065;-85
2022/03/09 00:09:29;;;;;;;7.65;4.57;;;4.90;58.40;;;;;;2079989;28;20034;-86
2022/03/09 00:10:29;;;;;;;7.93;4.80;;;4.90;58.40;;;;;;2070442;28;20153;-84
2022/03/09 00:11:30;;;;;;;7.90;4.63;;;4.90;58.40;;;;;;2064027;28;20027;-86
2022/03/09 00:12:31;;;;;;;7.57;4.85;;;4.90;58.40;;;;;;2077632;28;20108;-86
2022/03/09 00:13:31;;;;;;;8.23;4.60;;;4.80;58.40;;;;;;2064540;28;20160;-86
2022/03/09 00:14:32;;;;;;;8.48;5.35;;;4.80;58.40;;;;;;2067009;28;20038;-86
2022/03/09 00:15:33;;;;;;;7.75;4.85;;;4.80;58.30;;;;;;2082172;28;20033;-85
2022/03/09 00:16:33;;;;;;;7.70;4.40;;;4.80;58.40;;;;;;2080954;28;20077;-85
2022/03/09 00:17:34;;;;;;;8.38;5.07;;;4.80;58.40;;;;;;2073722;28;20046;-85
2022/03/09 00:18:34;;;;;;;7.55;4.80;;;4.80;58.50;;;;;;2082280;28;20021;-85
2022/03/09 00:19:35;;;;;;;7.65;4.90;;;4.80;58.50;;;;;;2080004;28;20589;-86
2022/03/09 00:20:36;;;;;;;8.27;5.30;;;4.80;58.50;;;;;;2081840;28;20511;-86
2022/03/09 00:21:37;;;;;;;8.38;4.80;;;4.70;58.50;;;;;;2072587;28;20060;-86
2022/03/09 00:22:37;;;;;;;8.32;5.22;;;4.70;59.10;;;;;;2066055;28;20121;-86
2022/03/09 00:23:38;;;;;;;8.25;4.72;;;4.70;58.60;;;;;;2072035;28;20033;-86
2022/03/09 00:24:38;;;;;;;7.85;4.43;;;4.70;58.70;;;;;;2081975;28;20033;-85
2022/03/09 00:25:39;;;;;;;6.90;4.32;;;4.70;58.70;;;;;;2078513;28;20052;-86
2022/03/09 00:26:40;;;;;;;8.05;4.93;;;4.70;58.80;;;;;;2079898;28;20084;-85
2022/03/09 00:27:41;;;;;;;8.07;4.68;;;4.60;58.80;;;;;;2082173;28;20399;-86
2022/03/09 00:28:42;;;;;;;9.73;5.07;;;4.60;58.80;;;;;;2081733;28;20116;-85
2022/03/09 00:29:42;;;;;;;8.10;4.85;;;4.60;58.80;;;;;;2078275;28;20033;-85
2022/03/09 00:30:43;;;;;;;8.30;4.70;;;4.60;58.90;;;;;;2064253;28;20030;-86
2022/03/09 00:31:43;;;;;;;8.60;4.82;;;4.60;58.90;;;;;;2073205;28;20116;-85
2022/03/09 00:32:44;;;;;;;7.22;4.68;;;4.60;59.00;;;;;;2082151;28;20053;-86
2022/03/09 00:33:45;;;;;;;8.48;4.90;;;4.60;59.20;;;;;;2082289;28;20412;-85
2022/03/09 00:34:45;;;;;;;7.45;4.65;;;4.50;59.10;;;;;;2081839;28;20030;-85
2022/03/09 00:35:46;;;;;;;9.63;5.13;;;4.50;59.10;;;;;;2076561;28;20026;-85
2022/03/09 00:36:47;;;;;;;7.22;4.80;;;4.50;59.10;;;;;;2077674;28;20072;-85
2022/03/09 00:37:48;;;;;;;7.95;4.72;;;4.50;59.10;;;;;;2073614;28;20042;-85
2022/03/09 00:38:49;;;;;;;7.35;4.70;;;4.50;59.20;;;;;;2082190;28;20037;-85
2022/03/09 00:39:49;;;;;;;8.45;4.93;;;4.40;59.20;;;;;;2079233;28;20435;-85
2022/03/09 00:40:50;;;;;;;8.02;5.00;;;4.40;59.20;;;;;;2076240;28;20037;-85
2022/03/09 00:41:51;;;;;;;8.80;4.72;;;4.40;59.30;;;;;;2078529;28;20177;-85
2022/03/09 00:42:51;;;;;;;8.20;5.00;;;4.40;59.40;;;;;;2081124;28;20483;-85
2022/03/09 00:43:52;;;;;;;7.47;4.68;;;4.40;59.30;;;;;;2080384;28;20052;-85
2022/03/09 00:44:52;;;;;;;7.18;4.43;;;4.40;59.30;;;;;;2082206;28;20525;-86
2022/03/09 00:45:53;;;;;;;8.25;4.88;;;4.40;59.40;;;;;;2079760;28;20120;-86
2022/03/09 00:46:54;;;;;;;7.68;4.68;;;4.40;59.30;;;;;;2082054;28;20030;-85
2022/03/09 00:47:55;;;;;;;8.93;5.15;;;4.40;59.30;;;;;;2065846;28;20121;-85
2022/03/09 00:48:55;;;;;;;8.45;4.50;;;4.40;59.30;;;;;;2073902;28;20132;-85
2022/03/09 00:49:56;;;;;;;8.63;5.18;;;4.40;59.20;;;;;;2080788;28;20037;-85
2022/03/09 00:50:57;;;;;;;9.40;5.22;;;4.40;59.20;;;;;;2081601;28;20496;-85
2022/03/09 00:51:57;;;;;;;8.43;4.80;;;4.40;59.20;;;;;;2080566;28;20649;-85
2022/03/09 00:52:58;;;;;;;7.40;4.88;;;4.40;59.20;;;;;;2077414;28;20061;-85
2022/03/09 00:53:59;;;;;;;7.03;4.45;;;4.40;59.20;;;;;;2075172;28;20029;-85
2022/03/09 00:54:59;;;;;;;8.43;4.43;;;4.40;59.20;;;;;;2082071;28;20061;-86
2022/03/09 00:56:00;;;;;;;8.55;4.85;;;4.40;59.20;;;;;;2072305;28;20139;-86
2022/03/09 00:57:00;;;;;;;7.75;4.65;;;4.40;59.10;;;;;;2073790;28;20057;-86
2022/03/09 00:58:01;;;;;;;8.70;4.97;;;4.40;59.10;;;;;;2074716;28;20038;-85
2022/03/09 00:59:01;;;;;;;8.60;4.68;;;4.40;59.10;;;;;;2074005;28;20022;-86
2022/03/09 01:00:03;;;;;;;10.88;5.25;;;4.40;59.10;;;;;;2080980;28;20064;-85
2022/03/09 01:01:04;;;;;;;8.30;5.18;;;4.40;59.10;;;;;;2080764;28;20024;-85
2022/03/09 01:02:04;;;;;;;7.05;4.55;;;4.40;59.10;;;;;;2071344;28;20124;-85
2022/03/09 01:03:05;;;;;;;8.73;5.13;;;4.40;59.10;;;;;;2055501;28;20030;-86
2022/03/09 01:04:05;;;;;;;7.40;4.43;;;4.30;59.10;;;;;;2067340;28;20445;-85
2022/03/09 01:05:06;;;;;;;8.63;5.03;;;4.40;59.20;;;;;;2079965;28;20383;-85
2022/03/09 01:06:07;;;;;;;7.90;4.50;;;4.40;59.20;;;;;;2081033;28;20036;-85
2022/03/09 01:07:08;;;;;;;7.20;4.28;;;4.30;59.20;;;;;;2082411;28;20063;-85
2022/03/09 01:08:09;;;;;;;8.98;5.00;;;4.30;59.20;;;;;;2081839;28;20029;-86
2022/03/09 01:09:09;;;;;;;7.50;4.85;;;4.30;59.30;;;;;;2080876;28;20063;-85
2022/03/09 01:10:11;;;;;;;8.48;4.82;;;4.30;59.30;;;;;;2082071;28;20075;-85
2022/03/09 01:11:11;;;;;;;7.60;4.45;;;4.30;59.30;;;;;;2081540;28;20025;-85
2022/03/09 01:12:12;;;;;;;8.25;4.82;;;4.30;59.40;;;;;;2073515;28;20124;-85
2022/03/09 01:13:12;;;;;;;7.75;4.43;;;4.30;59.40;;;;;;2071499;28;20497;-85
2022/03/09 01:14:13;;;;;;;8.23;4.38;;;4.30;59.50;;;;;;2082278;28;20040;-85
2022/03/09 01:15:14;;;;;;;7.80;4.90;;;4.30;59.50;;;;;;2081036;28;20032;-85
2022/03/09 01:16:14;;;;;;;8.50;5.05;;;4.20;59.40;;;;;;2080049;28;20140;-86
2022/03/09 01:17:15;;;;;;;6.82;3.90;;;4.20;59.50;;;;;;2079513;28;20033;-85
2022/03/09 01:18:16;;;;;;;7.90;4.65;;;4.20;59.40;;;;;;2081714;28;20442;-85
2022/03/09 01:19:17;;;;;;;7.15;4.40;;;4.20;59.50;;;;;;2079860;28;20024;-85
2022/03/09 01:20:18;;;;;;;6.63;4.22;;;4.20;59.60;;;;;;2081358;28;20052;-85
2022/03/09 01:21:18;;;;;;;7.13;4.30;;;4.20;59.60;;;;;;2072117;28;20116;-84
2022/03/09 01:22:19;;;;;;;7.18;4.50;;;4.20;59.70;;;;;;2065474;28;20058;-86
2022/03/09 01:23:20;;;;;;;6.90;4.05;;;4.20;59.80;;;;;;2071066;28;20527;-85
2022/03/09 01:24:20;;;;;;;8.02;4.20;;;4.20;59.90;;;;;;2080459;28;20021;-85
2022/03/09 01:25:21;;;;;;;6.88;4.30;;;4.20;60.00;;;;;;2065130;28;20121;-85
2022/03/09 01:26:21;;;;;;;6.55;4.05;;;4.20;60.00;;;;;;2064404;28;20034;-85
2022/03/09 01:27:22;;;;;;;9.30;4.32;;;4.20;60.00;;;;;;2077259;28;20036;-85
2022/03/09 01:28:23;;;;;;;7.43;4.30;;;4.10;60.00;;;;;;2082162;28;20079;-85
2022/03/09 01:29:23;;;;;;;7.55;4.30;;;4.10;60.00;;;;;;2080315;28;20401;-85
2022/03/09 01:30:24;;;;;;;6.68;4.30;;;4.10;60.00;;;;;;2072937;28;20073;-85
2022/03/09 01:31:25;;;;;;;6.68;4.18;;;4.10;60.20;;;;;;2080624;28;20029;-85
2022/03/09 01:32:25;;;;;;;7.53;4.25;;;4.10;60.20;;;;;;2081398;28;20093;-85
2022/03/09 01:33:26;;;;;;;8.43;4.47;;;4.10;60.20;;;;;;2077043;28;20374;-85
2022/03/09 01:34:27;;;;;;;7.32;4.15;;;4.10;60.30;;;;;;2065677;28;20133;-85
2022/03/09 01:35:27;;;;;;;7.53;4.47;;;4.00;60.20;;;;;;2077931;28;20026;-84
2022/03/09 01:36:28;;;;;;;7.10;4.43;;;4.00;60.10;;;;;;2074636;28;20428;-85
2022/03/09 01:37:29;;;;;;;7.53;4.18;;;4.00;60.10;;;;;;2080213;28;20025;-85
2022/03/09 01:38:29;;;;;;;8.75;4.47;;;4.00;60.10;;;;;;2081567;28;20061;-85
2022/03/09 01:39:30;;;;;;;7.65;4.50;;;4.00;60.10;;;;;;2081201;28;20372;-85
2022/03/09 01:40:30;;;;;;;6.60;4.15;;;4.00;60.10;;;;;;2080825;28;20373;-85
2022/03/09 01:41:31;;;;;;;8.13;4.50;;;4.00;60.10;;;;;;2073467;28;20036;-85
2022/03/09 01:42:32;;;;;;;7.05;4.18;;;4.00;60.20;;;;;;2080302;28;20044;-85
2022/03/09 01:43:32;;;;;;;7.57;4.60;;;4.00;60.20;;;;;;2080123;28;20520;-85
2022/03/09 01:44:33;;;;;;;7.35;4.03;;;4.00;60.20;;;;;;2080857;28;20032;-85
2022/03/09 01:45:35;;;;;;;7.80;4.00;;;3.90;60.20;;;;;;2081242;28;20095;-85
2022/03/09 01:46:36;;;;;;;7.38;4.47;;;3.90;60.20;;;;;;2079118;28;20147;-85
2022/03/09 01:47:37;;;;;;;7.55;4.30;;;3.90;60.30;;;;;;2080896;28;20045;-85
2022/03/09 01:48:37;;;;;;;6.55;4.10;;;3.90;60.20;;;;;;2081573;28;20073;-85
2022/03/09 01:49:39;;;;;;;7.00;3.85;;;4.00;60.20;;;;;;2079320;28;20487;-85
2022/03/09 01:50:40;;;;;;;7.85;4.07;;;4.00;60.20;;;;;;2080223;28;20033;-85
2022/03/09 01:51:43;;;;;;;8.30;4.75;;;4.00;60.20;;;;;;2081784;28;20034;-85
2022/03/09 01:52:44;;;;;;;8.20;4.30;;;4.00;60.20;;;;;;2072988;28;20385;-85
2022/03/09 01:53:44;;;;;;;8.57;4.25;;;4.00;60.10;;;;;;2073504;28;20034;-85
2022/03/09 01:54:46;;;;;;;7.85;4.28;;;4.00;60.10;;;;;;2080489;28;20476;-85
2022/03/09 01:55:46;;;;;;;7.55;4.32;;;4.00;60.10;;;;;;2081123;28;20484;-85
2022/03/09 01:56:47;;;;;;;7.38;4.32;;;4.00;60.00;;;;;;2072646;28;20069;-85
2022/03/09 01:57:48;;;;;;;8.52;4.68;;;4.00;60.00;;;;;;2064584;28;20039;-85
2022/03/09 01:58:49;;;;;;;6.80;3.88;;;4.00;60.00;;;;;;2065147;28;20030;-85
2022/03/09 01:59:51;;;;;;;7.45;4.68;;;4.00;60.00;;;;;;2058173;28;20085;-85
2022/03/09 02:00:52;;;;;;;7.20;4.28;;;4.00;59.90;;;;;;2072753;28;20064;-85
2022/03/09 02:01:53;;;;;;;7.35;4.32;;;4.00;59.90;;;;;;2074414;28;20980;-85
2022/03/09 02:02:53;;;;;;;6.70;3.90;;;4.00;60.00;;;;;;2081018;28;20029;-85
2022/03/09 02:03:56;;;;;;;7.28;4.25;;;4.00;60.00;;;;;;2081791;28;20090;-85
2022/03/09 02:04:57;;;;;;;8.20;4.18;;;4.00;60.10;;;;;;2078892;28;20468;-84
2022/03/09 02:05:59;;;;;;;8.00;4.55;;;4.00;60.10;;;;;;2073191;28;20022;-85
2022/03/09 02:06:59;;;;;;;6.63;4.05;;;4.00;60.20;;;;;;2070012;28;20030;-85
2022/03/09 02:10:40;;;;;;;8.23;4.80;;;3.90;60.20;;;;;;2076246;28;20040;-85
2022/03/09 02:11:41;;;;;;;7.53;4.35;;;3.90;60.20;;;;;;2078481;28;20032;-85
2022/03/09 02:12:42;;;;;;;8.70;4.53;;;3.90;60.20;;;;;;2080946;28;20026;-84
2022/03/09 02:13:42;;;;;;;7.57;4.40;;;3.90;60.20;;;;;;2079377;28;20043;-85
2022/03/09 02:14:45;;;;;;;6.88;3.92;;;3.90;60.20;;;;;;2081425;28;20049;-85
2022/03/09 02:15:46;;;;;;;7.45;4.53;;;3.90;60.20;;;;;;2081732;28;20040;-85
2022/03/09 02:16:50;;;;;;;7.45;4.43;;;3.90;60.20;;;;;;2081007;28;20061;-85
2022/03/09 02:17:51;;;;;;;6.82;4.22;;;3.90;60.20;;;;;;2079396;28;20095;-85
2022/03/09 02:18:51;;;;;;;7.90;4.38;;;3.90;60.20;;;;;;2081232;28;20038;-85
2022/03/09 02:19:53;;;;;;;6.60;3.88;;;3.80;60.10;;;;;;2081030;28;20060;-85
2022/03/09 02:21:00;;;;;;;6.53;4.00;;;3.80;60.20;;;;;;2081386;28;20480;-85
2022/03/09 02:22:19;;;;;;;8.88;4.40;;;3.80;60.20;;;;;;2077458;28;20025;-85
2022/03/09 02:23:20;;;;;;;7.30;4.00;;;3.80;60.20;;;;;;2081337;28;20022;-85
2022/03/09 02:24:22;;;;;;;6.40;4.18;;;3.90;60.30;;;;;;2069644;28;20068;-85
2022/03/09 02:25:23;;;;;;;7.70;4.05;;;3.80;60.30;;;;;;2078819;28;20026;-85
2022/03/09 02:26:23;;;;;;;6.88;4.00;;;3.80;60.30;;;;;;2079036;28;20495;-85
2022/03/09 02:27:24;;;;;;;6.93;4.30;;;3.80;60.40;;;;;;2080215;28;20123;-85
2022/03/09 02:28:24;;;;;;;6.90;4.00;;;3.80;60.40;;;;;;2080394;28;20033;-85
2022/03/09 02:29:25;;;;;;;6.25;3.97;;;3.80;60.50;;;;;;2072144;28;20034;-85
2022/03/09 02:30:26;;;;;;;7.95;4.22;;;3.80;60.50;;;;;;2073066;28;20065;-85
2022/03/09 02:31:26;;;;;;;5.65;3.58;;;3.70;60.60;;;;;;2079954;28;20396;-85
2022/03/09 02:32:27;;;;;;;6.13;3.70;;;3.70;60.70;;;;;;2080506;28;20033;-85
2022/03/09 02:33:28;;;;;;;7.47;4.10;;;3.70;60.80;;;;;;2080926;28;20036;-85
2022/03/09 02:34:29;;;;;;;6.72;3.97;;;3.60;60.80;;;;;;2072264;28;20045;-85
2022/03/09 02:35:29;;;;;;;5.55;3.50;;;3.60;61.00;;;;;;2073153;28;20599;-85
2022/03/09 02:36:30;;;;;;;7.35;4.10;;;3.60;61.10;;;;;;2074466;28;20049;-85
2022/03/09 02:37:31;;;;;;;6.80;3.88;;;3.60;61.20;;;;;;2077833;28;20858;-85
2022/03/09 02:38:31;;;;;;;6.57;3.70;;;3.60;61.30;;;;;;2079261;28;20132;-85
2022/03/09 02:39:32;;;;;;;7.25;4.03;;;3.60;61.30;;;;;;2080373;28;20034;-85
2022/03/09 02:40:33;;;;;;;6.15;3.83;;;3.50;61.30;;;;;;2074970;28;20033;-85
2022/03/09 02:41:33;;;;;;;5.85;3.78;;;3.50;61.40;;;;;;2073170;28;20034;-84
2022/03/09 02:42:34;;;;;;;7.75;3.70;;;3.50;61.50;;;;;;2086374;28;20419;-85
2022/03/09 02:43:35;;;;;;;6.75;3.80;;;3.50;61.50;;;;;;2080407;28;20574;-85
2022/03/09 02:44:36;;;;;;;6.13;3.50;;;3.50;61.60;;;;;;2059346;28;20401;-85
2022/03/09 02:45:36;;;;;;;5.90;3.50;;;3.50;61.60;;;;;;2072913;28;20022;-85
2022/03/09 02:46:37;;;;;;;6.30;3.72;;;3.50;61.60;;;;;;2080555;28;20033;-85
2022/03/09 02:47:39;;;;;;;7.70;4.40;;;3.50;61.60;;;;;;2080509;28;20030;-85
2022/03/09 02:48:40;;;;;;;8.52;4.25;;;3.50;61.60;;;;;;2077323;28;20038;-85
2022/03/09 02:49:40;;;;;;;7.82;4.07;;;3.40;61.50;;;;;;2080827;28;20472;-85
2022/03/09 02:50:41;;;;;;;6.75;4.18;;;3.40;61.50;;;;;;2079720;28;20021;-85
2022/03/09 02:51:42;;;;;;;7.55;4.20;;;3.40;61.50;;;;;;2079586;28;20025;-85
2022/03/09 02:52:44;;;;;;;8.93;4.47;;;3.40;61.50;;;;;;2073840;28;20125;-85
2022/03/09 02:53:44;;;;;;;6.45;3.85;;;3.40;61.50;;;;;;2075930;28;20462;-85
2022/03/09 02:54:45;;;;;;;7.72;4.13;;;3.40;61.50;;;;;;2070423;28;20057;-85
2022/03/09 02:55:46;;;;;;;7.45;4.55;;;3.40;61.50;;;;;;2081086;28;20037;-85
2022/03/09 02:56:47;;;;;;;6.93;4.10;;;3.40;61.60;;;;;;2072594;28;20133;-85
2022/03/09 02:57:47;;;;;;;7.40;4.35;;;3.40;61.60;;;;;;2071634;28;20030;-85
2022/03/09 02:58:48;;;;;;;6.88;3.90;;;3.40;61.50;;;;;;2080681;28;20037;-85
2022/03/09 02:59:49;;;;;;;6.75;4.13;;;3.40;62.20;;;;;;2069705;28;20038;-85
2022/03/09 03:00:50;;;;;;;6.47;3.85;;;3.40;61.60;;;;;;2081057;28;20079;-85
2022/03/09 03:01:50;;;;;;;6.57;3.83;;;3.30;61.60;;;;;;2073450;28;20480;-85
2022/03/09 03:02:51;;;;;;;6.13;3.63;;;3.30;61.70;;;;;;2070343;28;20033;-85
2022/03/09 03:03:51;;;;;;;8.07;3.97;;;3.30;61.90;;;;;;2072911;28;20116;-85
2022/03/09 03:04:52;;;;;;;6.25;3.65;;;3.30;61.90;;;;;;2072099;28;20125;-85
2022/03/09 03:05:52;;;;;;;7.55;4.10;;;3.30;62.60;;;;;;2077062;28;20061;-84
2022/03/09 03:06:53;;;;;;;6.90;4.07;;;3.30;62.00;;;;;;2062263;28;20034;-85
2022/03/09 03:07:54;;;;;;;6.00;3.60;;;3.20;62.10;;;;;;2063157;28;20041;-85
2022/03/09 03:08:55;;;;;;;6.25;3.67;;;3.20;62.10;;;;;;2063722;28;20041;-85
2022/03/09 03:09:56;;;;;;;7.75;4.05;;;3.20;62.20;;;;;;2064136;28;20357;-85
2022/03/09 03:10:56;;;;;;;6.57;4.00;;;3.20;62.40;;;;;;2080756;28;20036;-85
2022/03/09 03:11:57;;;;;;;7.07;3.97;;;3.10;62.40;;;;;;2081021;28;20459;-85
2022/03/09 03:12:58;;;;;;;6.70;3.83;;;3.10;62.40;;;;;;2074774;28;20080;-85
2022/03/09 03:13:58;;;;;;;6.00;3.63;;;3.10;62.50;;;;;;2072953;28;20037;-85
2022/03/09 03:14:59;;;;;;;8.32;4.32;;;3.10;62.50;;;;;;2078216;28;20033;-85
2022/03/09 03:15:59;;;;;;;6.57;3.90;;;3.00;62.60;;;;;;2080023;28;20583;-85
2022/03/09 03:17:00;;;;;;;7.13;4.18;;;3.10;62.70;;;;;;2078545;28;20037;-84
2022/03/09 03:18:01;;;;;;;7.57;4.03;;;3.10;62.70;;;;;;2078906;28;20042;-85
2022/03/09 03:19:02;;;;;;;7.05;4.10;;;3.00;62.70;;;;;;2073075;28;20081;-85
2022/03/09 03:20:06;;;;;;;6.68;4.32;;;3.00;62.70;;;;;;2066872;28;20030;-85
2022/03/09 03:21:08;;;;;;;7.38;4.03;;;3.00;62.80;;;;;;2078499;28;20025;-84
2022/03/09 03:22:09;;;;;;;6.35;3.80;;;3.00;62.90;;;;;;2082542;28;20025;-85
2022/03/09 03:23:09;;;;;;;6.43;3.88;;;3.00;62.90;;;;;;2081706;28;20029;-85
2022/03/09 03:24:10;;;;;;;7.32;4.00;;;3.00;63.00;;;;;;2074267;28;20061;-84
2022/03/09 03:25:10;;;;;;;6.55;3.90;;;3.00;63.00;;;;;;2074910;28;20492;-85
2022/03/09 03:26:11;;;;;;;7.25;4.07;;;3.00;63.00;;;;;;2071726;28;20079;-85
2022/03/09 03:27:12;;;;;;;6.75;3.70;;;3.00;63.00;;;;;;2080946;28;20025;-85
2022/03/09 03:28:12;;;;;;;6.55;4.00;;;3.00;63.10;;;;;;2075161;28;20026;-85
2022/03/09 03:29:13;;;;;;;6.18;3.65;;;3.00;63.10;;;;;;2071622;28;20034;-84
2022/03/09 03:30:13;;;;;;;7.45;4.00;;;3.00;63.10;;;;;;2078446;28;20069;-85
2022/03/09 03:31:14;;;;;;;6.03;3.80;;;3.00;63.10;;;;;;2056590;28;20066;-85
2022/03/09 03:32:15;;;;;;;6.40;3.78;;;3.00;63.10;;;;;;2056781;28;20046;-85
2022/03/09 03:33:17;;;;;;;7.70;3.70;;;3.00;63.20;;;;;;2069661;28;20026;-85
2022/03/09 03:34:17;;;;;;;7.22;4.20;;;3.00;63.20;;;;;;2080993;28;20025;-85
2022/03/09 03:35:18;;;;;;;6.85;3.95;;;3.00;63.10;;;;;;2080354;28;20512;-84
2022/03/09 03:36:19;;;;;;;7.80;3.67;;;3.00;63.20;;;;;;2080630;28;20041;-85
2022/03/09 03:37:19;;;;;;;6.05;3.92;;;3.00;63.20;;;;;;2076645;28;20027;-85
2022/03/09 03:38:20;;;;;;;5.90;3.83;;;3.00;63.80;;;;;;2066029;28;20027;-85
2022/03/09 03:39:20;;;;;;;7.30;3.85;;;3.00;63.20;;;;;;2070582;28;20480;-85
2022/03/09 03:40:21;;;;;;;6.68;3.90;;;3.00;63.20;;;;;;2071726;28;20565;-85
2022/03/09 03:41:22;;;;;;;6.50;3.67;;;3.00;63.20;;;;;;2072509;28;20025;-84
2022/03/09 03:42:22;;;;;;;8.30;3.78;;;3.00;63.30;;;;;;2070476;28;20026;-85
2022/03/09 03:43:23;;;;;;;8.05;4.30;;;3.00;63.30;;;;;;2070717;28;20118;-85
2022/03/09 03:44:24;;;;;;;7.43;4.15;;;3.00;63.20;;;;;;2077430;28;20506;-85
2022/03/09 03:45:24;;;;;;;6.28;3.50;;;3.00;63.20;;;;;;2074525;28;20104;-85
2022/03/09 03:46:25;;;;;;;7.78;3.97;;;3.00;63.20;;;;;;2074253;28;20022;-85
2022/03/09 03:47:26;;;;;;;6.68;3.85;;;3.00;63.20;;;;;;2080249;28;20140;-85
2022/03/09 03:48:27;;;;;;;6.03;3.47;;;3.00;63.20;;;;;;2080836;28;20049;-85
2022/03/09 03:49:27;;;;;;;6.00;3.58;;;3.00;63.30;;;;;;2081960;28;20038;-85
2022/03/09 03:50:28;;;;;;;6.47;4.10;;;3.00;63.30;;;;;;2081859;28;20033;-85
2022/03/09 03:51:28;;;;;;;8.32;3.83;;;3.00;63.40;;;;;;2081328;28;20105;-85
2022/03/09 03:52:29;;;;;;;6.38;3.70;;;3.00;63.40;;;;;;2082150;28;20036;-85
2022/03/09 03:53:30;;;;;;;7.22;3.97;;;3.00;63.40;;;;;;2083220;28;20044;-85
2022/03/09 03:54:30;;;;;;;7.18;3.95;;;3.00;63.30;;;;;;2080630;28;20124;-85
2022/03/09 03:55:31;;;;;;;7.00;3.65;;;3.00;63.30;;;;;;2083086;28;20484;-85
2022/03/09 03:56:32;;;;;;;7.38;3.65;;;3.00;63.20;;;;;;2075190;28;20133;-85
2022/03/09 03:57:32;;;;;;;6.40;3.50;;;3.00;63.20;;;;;;2079121;28;20029;-85
2022/03/09 03:58:33;;;;;;;6.03;3.50;;;3.00;63.20;;;;;;2074375;28;20496;-85
2022/03/09 03:59:34;;;;;;;7.32;4.13;;;3.00;63.30;;;;;;2080119;28;20036;-85
2022/03/09 04:00:34;;;;;;;6.15;3.40;;;3.00;63.30;;;;;;2077331;28;20034;-85
2022/03/09 04:01:35;;;;;;;5.82;3.45;;;3.00;63.40;;;;;;2067786;28;20124;-86
2022/03/09 04:02:36;;;;;;;6.80;3.70;;;2.90;63.40;;;;;;2081878;28;20033;-85
2022/03/09 04:03:37;;;;;;;6.47;3.60;;;2.90;63.50;;;;;;2073235;28;20033;-85
2022/03/09 04:04:37;;;;;;;6.75;3.67;;;2.90;63.60;;;;;;2081978;28;20044;-85
2022/03/09 04:05:38;;;;;;;8.32;4.07;;;2.90;63.70;;;;;;2073312;28;20481;-85
2022/03/09 04:06:38;;;;;;;7.38;3.83;;;2.90;63.80;;;;;;2073602;28;20512;-85
2022/03/09 04:07:39;;;;;;;6.85;3.83;;;2.80;63.90;;;;;;2082052;28;20037;-85
2022/03/09 04:08:40;;;;;;;6.05;3.45;;;2.80;63.90;;;;;;2080921;28;20022;-85
2022/03/09 04:09:40;;;;;;;7.30;3.90;;;2.80;64.00;;;;;;2080847;28;20036;-85
2022/03/09 04:10:41;;;;;;;6.32;3.45;;;2.80;64.10;;;;;;2074193;28;20071;-85
2022/03/09 04:11:41;;;;;;;6.28;3.40;;;2.80;64.10;;;;;;2082409;28;20025;-85
2022/03/09 04:12:42;;;;;;;6.80;3.78;;;2.70;64.10;;;;;;2064290;28;20031;-84
2022/03/09 04:13:44;;;;;;;6.60;4.05;;;2.70;64.20;;;;;;2073404;28;20076;-84
2022/03/09 04:14:44;;;;;;;6.75;3.60;;;2.70;64.20;;;;;;2082744;28;20030;-85
2022/03/09 04:15:45;;;;;;;6.18;4.00;;;2.70;64.20;;;;;;2081556;28;20030;-85
2022/03/09 04:16:47;;;;;;;6.30;3.72;;;2.70;64.30;;;;;;2078957;28;20033;-85
2022/03/09 04:17:47;;;;;;;6.43;3.65;;;2.60;64.30;;;;;;2076153;28;20111;-85
2022/03/09 04:18:48;;;;;;;6.07;3.53;;;2.70;64.40;;;;;;2065211;28;20077;-85
2022/03/09 04:19:49;;;;;;;7.00;3.67;;;2.70;64.50;;;;;;2066126;28;20515;-85
2022/03/09 04:20:50;;;;;;;6.55;3.95;;;2.60;64.40;;;;;;2064721;28;20061;-85
2022/03/09 04:21:50;;;;;;;6.53;3.65;;;2.70;64.50;;;;;;2057978;28;20030;-85
2022/03/09 04:22:51;;;;;;;7.07;3.90;;;2.60;64.40;;;;;;2077328;28;20404;-85
2022/03/09 04:23:51;;;;;;;6.32;3.63;;;2.60;64.40;;;;;;2076397;28;20022;-85
2022/03/09 04:24:52;;;;;;;6.70;3.72;;;2.60;64.50;;;;;;2081556;28;20076;-85
2022/03/09 04:25:52;;;;;;;7.30;4.10;;;2.60;64.50;;;;;;2082825;28;20037;-85
2022/03/09 04:26:53;;;;;;;6.55;3.75;;;2.60;64.50;;;;;;2080986;28;20117;-85
2022/03/09 04:27:54;;;;;;;7.22;3.70;;;2.60;64.50;;;;;;2082032;28;20119;-85
2022/03/09 04:28:54;;;;;;;6.28;3.63;;;2.60;64.40;;;;;;2082097;28;20470;-85
2022/03/09 04:29:55;;;;;;;6.78;3.88;;;2.60;64.40;;;;;;2080825;28;20112;-85
2022/03/09 04:30:56;;;;;;;7.47;4.20;;;2.60;64.30;;;;;;2082770;28;20476;-85
2022/03/09 04:31:56;;;;;;;7.10;4.55;;;2.60;64.20;;;;;;2082121;28;20041;-85
2022/03/09 04:32:57;;;;;;;6.28;3.92;;;2.60;64.10;;;;;;2073684;28;20069;-84
2022/03/09 04:33:58;;;;;;;6.47;3.92;;;2.60;64.10;;;;;;2073502;28;20026;-85
2022/03/09 04:34:58;;;;;;;7.53;4.35;;;2.60;64.00;;;;;;2064909;28;20079;-84
2022/03/09 04:35:59;;;;;;;6.57;3.85;;;2.60;64.10;;;;;;2069331;28;20361;-85
2022/03/09 04:36:59;;;;;;;7.20;3.63;;;2.60;64.00;;;;;;2081160;28;20067;-85
2022/03/09 04:38:00;;;;;;;6.63;3.80;;;2.60;64.00;;;;;;2080539;28;20037;-85
2022/03/09 04:39:01;;;;;;;7.85;3.88;;;2.60;64.00;;;;;;2081231;28;20103;-85
2022/03/09 04:40:03;;;;;;;7.32;3.95;;;2.60;64.00;;;;;;2082037;28;20060;-85
2022/03/09 04:41:04;;;;;;;7.10;4.30;;;2.60;64.10;;;;;;2080984;28;20065;-85
2022/03/09 04:42:04;;;;;;;6.15;3.72;;;2.60;64.10;;;;;;2081407;28;20503;-85
2022/03/09 04:43:05;;;;;;;6.90;4.25;;;2.60;64.10;;;;;;2073840;28;20030;-85
2022/03/09 04:44:06;;;;;;;7.63;3.97;;;2.50;64.10;;;;;;2081089;28;20361;-85
2022/03/09 04:45:07;;;;;;;6.40;3.97;;;2.60;64.10;;;;;;2080126;28;20443;-86
2022/03/09 04:46:08;;;;;;;6.95;4.05;;;2.60;64.20;;;;;;2077538;28;20030;-85
2022/03/09 04:47:09;;;;;;;7.72;4.05;;;2.50;64.10;;;;;;2078865;28;20048;-85
2022/03/09 04:48:09;;;;;;;7.35;4.03;;;2.60;64.80;;;;;;2079338;28;20529;-85
2022/03/09 04:49:10;;;;;;;8.57;4.25;;;2.60;64.20;;;;;;2081209;28;20111;-85
2022/03/09 04:50:11;;;;;;;7.53;3.95;;;2.60;64.10;;;;;;2082111;28;20383;-85
2022/03/09 04:51:11;;;;;;;7.28;3.85;;;2.50;64.10;;;;;;2073566;28;20026;-85
2022/03/09 04:52:12;;;;;;;7.47;4.07;;;2.60;64.10;;;;;;2077559;28;20447;-85
2022/03/09 04:53:13;;;;;;;6.93;4.22;;;2.60;64.10;;;;;;2081893;28;20052;-85
2022/03/09 04:54:14;;;;;;;7.45;3.97;;;2.50;64.00;;;;;;2073106;28;20491;-84
2022/03/09 04:55:14;;;;;;;7.18;4.18;;;2.60;64.10;;;;;;2072519;28;20101;-85
2022/03/09 04:56:15;;;;;;;7.30;4.25;;;2.50;64.10;;;;;;2065631;28;20513;-85
2022/03/09 04:57:16;;;;;;;6.88;4.05;;;2.50;64.10;;;;;;2066257;28;20490;-85
2022/03/09 04:58:16;;;;;;;7.32;4.07;;;2.50;64.10;;;;;;2082284;28;20025;-84
2022/03/09 04:59:17;;;;;;;8.75;3.75;;;2.50;64.20;;;;;;2081347;28;20403;-85
2022/03/09 05:00:18;;;;;;;7.55;3.92;;;2.50;64.30;;;;;;2081144;28;20072;-85
2022/03/09 05:01:18;;;;;;;8.18;3.85;;;2.50;64.20;;;;;;2072836;28;20397;-85
2022/03/09 05:02:19;;;;;;;7.55;3.95;;;2.50;64.30;;;;;;2073082;28;20038;-85
2022/03/09 05:03:20;;;;;;;7.22;4.25;;;2.50;64.30;;;;;;2073769;28;20034;-85
2022/03/09 05:04:20;;;;;;;6.25;3.65;;;2.40;64.30;;;;;;2078300;28;20025;-85
2022/03/09 05:05:21;;;;;;;6.75;3.70;;;2.50;65.00;;;;;;2080217;28;20025;-85
2022/03/09 05:06:21;;;;;;;7.43;4.35;;;2.40;64.30;;;;;;2082080;28;20088;-85
2022/03/09 05:07:22;;;;;;;7.13;3.97;;;2.40;64.30;;;;;;2080986;28;20018;-85
2022/03/09 05:08:23;;;;;;;6.65;3.90;;;2.40;64.40;;;;;;2080189;28;20103;-85
2022/03/09 05:09:23;;;;;;;6.80;3.83;;;2.40;64.40;;;;;;2080045;28;20072;-85
2022/03/09 05:10:24;;;;;;;7.88;4.50;;;2.40;64.40;;;;;;2082201;28;20026;-85
2022/03/09 05:11:25;;;;;;;8.95;4.75;;;2.40;64.30;;;;;;2073512;28;20053;-85
2022/03/09 05:12:25;;;;;;;7.05;3.72;;;2.50;64.30;;;;;;2073568;28;20030;-85
2022/03/09 05:13:26;;;;;;;8.25;3.88;;;2.50;64.20;;;;;;2074281;28;20033;-85
2022/03/09 05:14:27;;;;;;;6.10;3.60;;;2.50;64.20;;;;;;2078079;28;20179;-85
2022/03/09 05:15:28;;;;;;;6.97;3.92;;;2.50;64.10;;;;;;2080890;28;20030;-85
2022/03/09 05:16:28;;;;;;;7.30;4.18;;;2.50;64.20;;;;;;2081042;28;20136;-85
2022/03/09 05:17:29;;;;;;;6.93;3.92;;;2.50;64.20;;;;;;2080508;28;20368;-84
2022/03/09 05:18:29;;;;;;;6.53;3.80;;;2.50;64.10;;;;;;2075707;28;20064;-85
2022/03/09 05:19:30;;;;;;;6.68;4.07;;;2.50;64.10;;;;;;2065765;28;20492;-85
2022/03/09 05:20:31;;;;;;;8.00;4.60;;;2.50;64.10;;;;;;2065528;28;20034;-85
2022/03/09 05:21:31;;;;;;;7.07;4.03;;;2.50;64.00;;;;;;2070839;28;20091;-85
2022/03/09 05:22:32;;;;;;;8.07;4.60;;;2.60;64.00;;;;;;2064659;28;20038;-84
2022/03/09 05:23:33;;;;;;;7.63;3.97;;;2.60;63.90;;;;;;2070550;28;20528;-85